CheckWX is a tool to help pilots better visualize weather data.  It is not intended as a substitute for an official pre-flight weather briefing.

17:28:33 UTC

KCOS METAR
City of Colorado Springs Municipal Airport
Colorado Springs, Colorado, USA
Current

35 mins ago

KCOS 211654Z VRB04KT 10SM FEW025 FEW240 23/14 A3025 RMK AO2 SLP157 T02330144 $
Observed
Jul-21 @ 16:54 UTC
Wind
  • Variable at 4 KTS
Visibility
10 SM
Flight Rules
VFR
Cloud Levels
  • Few at 2,500' AGL
  • Few at 24,000' AGL
Temperature
23°C / 73°F
Dewpoint
14°C / 57°F
Humidity
57%
Altimeter
30.25" Hg
Pressure
1024.42 hPa
Previous

2 hours ago

KCOS 211554Z 17004KT 10SM FEW017 FEW240 21/14 A3026 RMK AO2 SLP165 T02060144 $
Observed
Jul-21 @ 15:54 UTC
Wind
  • 170° at 4 KTS
Visibility
10 SM
Flight Rules
VFR
Cloud Levels
  • Few at 1,700' AGL
  • Few at 24,000' AGL
Temperature
21°C / 70°F
Dewpoint
14°C / 57°F
Humidity
64%
Altimeter
30.26" Hg
Pressure
1024.72 hPa
Previous

3 hours ago

KCOS 211454Z 18010KT 9SM SCT015 BKN160 BKN240 19/14 A3025 RMK AO2 SLP166 T01940144 53006 $
Observed
Jul-21 @ 14:54 UTC
Wind
  • 180° at 10 KTS
Visibility
9 SM
Flight Rules
VFR
Cloud Levels
  • Scattered at 1,500' AGL
  • Broken at 16,000' AGL
  • Broken at 24,000' AGL
Temperature
19°C / 66°F
Dewpoint
14°C / 57°F
Humidity
73%
Altimeter
30.25" Hg
Pressure
1024.42 hPa